sensor_id;sensor_type;location;lat;lon;timestamp;P1;durP1;ratioP1;P2;durP2;ratioP2
28519;SDS011;15732;48.534;20.382;2022-07-03T00:02:00;4.85;;;1.70;;
28519;SDS011;15732;48.534;20.382;2022-07-03T00:04:27;7.70;;;1.60;;
28519;SDS011;15732;48.534;20.382;2022-07-03T00:06:55;4.18;;;1.75;;
28519;SDS011;15732;48.534;20.382;2022-07-03T00:09:22;4.47;;;1.67;;
28519;SDS011;15732;48.534;20.382;2022-07-03T00:11:53;4.47;;;1.80;;
28519;SDS011;15732;48.534;20.382;2022-07-03T00:14:21;5.17;;;2.30;;
28519;SDS011;15732;48.534;20.382;2022-07-03T00:16:48;5.72;;;1.92;;
28519;SDS011;15732;48.534;20.382;2022-07-03T00:19:16;4.97;;;1.67;;
28519;SDS011;15732;48.534;20.382;2022-07-03T00:21:53;4.13;;;1.73;;
28519;SDS011;15732;48.534;20.382;2022-07-03T00:24:32;3.97;;;1.92;;
28519;SDS011;15732;48.534;20.382;2022-07-03T00:27:17;5.47;;;1.48;;
28519;SDS011;15732;48.534;20.382;2022-07-03T00:29:47;4.45;;;1.60;;
28519;SDS011;15732;48.534;20.382;2022-07-03T00:32:18;7.93;;;2.10;;
28519;SDS011;15732;48.534;20.382;2022-07-03T00:34:50;3.70;;;1.52;;
28519;SDS011;15732;48.534;20.382;2022-07-03T00:37:18;5.40;;;2.08;;
28519;SDS011;15732;48.534;20.382;2022-07-03T00:39:46;5.80;;;2.38;;
28519;SDS011;15732;48.534;20.382;2022-07-03T00:42:17;4.63;;;1.77;;
28519;SDS011;15732;48.534;20.382;2022-07-03T00:44:48;4.63;;;2.13;;
28519;SDS011;15732;48.534;20.382;2022-07-03T00:47:24;3.78;;;1.60;;
28519;SDS011;15732;48.534;20.382;2022-07-03T00:52:21;4.40;;;2.00;;
28519;SDS011;15732;48.534;20.382;2022-07-03T00:54:56;5.28;;;1.92;;
28519;SDS011;15732;48.534;20.382;2022-07-03T00:57:29;6.10;;;1.60;;
28519;SDS011;15732;48.534;20.382;2022-07-03T01:00:01;4.18;;;1.85;;
28519;SDS011;15732;48.534;20.382;2022-07-03T01:05:32;4.47;;;2.25;;
28519;SDS011;15732;48.534;20.382;2022-07-03T01:13:49;4.35;;;2.28;;
28519;SDS011;15732;48.534;20.382;2022-07-03T01:16:36;4.63;;;1.73;;
28519;SDS011;15732;48.534;20.382;2022-07-03T01:25:14;3.92;;;1.33;;
28519;SDS011;15732;48.534;20.382;2022-07-03T01:30:51;5.90;;;2.03;;
28519;SDS011;15732;48.534;20.382;2022-07-03T01:33:24;3.70;;;1.33;;
28519;SDS011;15732;48.534;20.382;2022-07-03T01:38:37;7.65;;;2.10;;
28519;SDS011;15732;48.534;20.382;2022-07-03T01:41:21;3.88;;;1.58;;
28519;SDS011;15732;48.534;20.382;2022-07-03T01:43:56;3.30;;;1.60;;
28519;SDS011;15732;48.534;20.382;2022-07-03T01:46:31;4.20;;;1.60;;
28519;SDS011;15732;48.534;20.382;2022-07-03T01:48:59;4.68;;;1.73;;
28519;SDS011;15732;48.534;20.382;2022-07-03T01:51:31;6.18;;;2.05;;
28519;SDS011;15732;48.534;20.382;2022-07-03T01:54:01;5.30;;;2.08;;
28519;SDS011;15732;48.534;20.382;2022-07-03T01:56:29;3.13;;;1.35;;
28519;SDS011;15732;48.534;20.382;2022-07-03T01:59:00;4.93;;;1.63;;
28519;SDS011;15732;48.534;20.382;2022-07-03T02:07:14;4.85;;;1.85;;
28519;SDS011;15732;48.534;20.382;2022-07-03T02:09:56;4.15;;;1.45;;
28519;SDS011;15732;48.534;20.382;2022-07-03T02:12:35;4.22;;;1.58;;
28519;SDS011;15732;48.534;20.382;2022-07-03T02:15:11;4.40;;;1.77;;
28519;SDS011;15732;48.534;20.382;2022-07-03T02:17:43;3.83;;;1.70;;
28519;SDS011;15732;48.534;20.382;2022-07-03T02:20:30;18.60;;;2.20;;
28519;SDS011;15732;48.534;20.382;2022-07-03T02:23:05;4.05;;;1.67;;
28519;SDS011;15732;48.534;20.382;2022-07-03T02:25:36;4.63;;;1.95;;
28519;SDS011;15732;48.534;20.382;2022-07-03T02:28:23;4.80;;;2.55;;
28519;SDS011;15732;48.534;20.382;2022-07-03T02:31:12;5.95;;;2.03;;
28519;SDS011;15732;48.534;20.382;2022-07-03T02:33:44;6.22;;;2.03;;
28519;SDS011;15732;48.534;20.382;2022-07-03T02:36:14;3.33;;;1.35;;
28519;SDS011;15732;48.534;20.382;2022-07-03T02:38:46;5.15;;;1.80;;
28519;SDS011;15732;48.534;20.382;2022-07-03T02:41:23;3.63;;;1.73;;
28519;SDS011;15732;48.534;20.382;2022-07-03T02:44:01;3.97;;;1.52;;
28519;SDS011;15732;48.534;20.382;2022-07-03T02:55:10;5.00;;;2.08;;
28519;SDS011;15732;48.534;20.382;2022-07-03T03:01:03;7.15;;;1.80;;
28519;SDS011;15732;48.534;20.382;2022-07-03T03:06:36;3.78;;;1.48;;
28519;SDS011;15732;48.534;20.382;2022-07-03T03:09:05;4.65;;;1.70;;
28519;SDS011;15732;48.534;20.382;2022-07-03T03:11:41;4.47;;;1.60;;
28519;SDS011;15732;48.534;20.382;2022-07-03T03:14:12;5.28;;;1.73;;
28519;SDS011;15732;48.534;20.382;2022-07-03T03:16:45;8.50;;;2.42;;
28519;SDS011;15732;48.534;20.382;2022-07-03T03:19:29;4.10;;;2.03;;
28519;SDS011;15732;48.534;20.382;2022-07-03T03:24:34;4.40;;;1.92;;
28519;SDS011;15732;48.534;20.382;2022-07-03T03:27:02;7.65;;;1.55;;
28519;SDS011;15732;48.534;20.382;2022-07-03T03:29:30;8.52;;;1.55;;
28519;SDS011;15732;48.534;20.382;2022-07-03T03:31:58;6.30;;;1.60;;
28519;SDS011;15732;48.534;20.382;2022-07-03T03:34:29;4.82;;;1.88;;
28519;SDS011;15732;48.534;20.382;2022-07-03T03:36:58;2.95;;;1.17;;
28519;SDS011;15732;48.534;20.382;2022-07-03T03:39:26;6.68;;;2.35;;
28519;SDS011;15732;48.534;20.382;2022-07-03T03:41:54;3.15;;;1.55;;
28519;SDS011;15732;48.534;20.382;2022-07-03T03:44:21;3.57;;;1.50;;
28519;SDS011;15732;48.534;20.382;2022-07-03T03:46:49;3.87;;;1.73;;
28519;SDS011;15732;48.534;20.382;2022-07-03T03:49:17;5.13;;;2.10;;
28519;SDS011;15732;48.534;20.382;2022-07-03T03:51:44;5.57;;;1.52;;
28519;SDS011;15732;48.534;20.382;2022-07-03T03:54:15;3.80;;;1.52;;
28519;SDS011;15732;48.534;20.382;2022-07-03T03:56:41;4.15;;;1.58;;
28519;SDS011;15732;48.534;20.382;2022-07-03T03:59:09;4.37;;;2.00;;
28519;SDS011;15732;48.534;20.382;2022-07-03T04:01:40;5.78;;;1.73;;
28519;SDS011;15732;48.534;20.382;2022-07-03T04:04:12;4.50;;;1.77;;
28519;SDS011;15732;48.534;20.382;2022-07-03T04:06:43;5.55;;;1.80;;
28519;SDS011;15732;48.534;20.382;2022-07-03T04:09:11;4.93;;;1.88;;
28519;SDS011;15732;48.534;20.382;2022-07-03T04:11:42;5.07;;;2.17;;
28519;SDS011;15732;48.534;20.382;2022-07-03T04:14:10;6.57;;;1.90;;
28519;SDS011;15732;48.534;20.382;2022-07-03T04:16:41;4.32;;;1.77;;
28519;SDS011;15732;48.534;20.382;2022-07-03T04:19:08;4.32;;;1.80;;
28519;SDS011;15732;48.534;20.382;2022-07-03T04:21:40;5.65;;;2.20;;
28519;SDS011;15732;48.534;20.382;2022-07-03T04:24:07;3.90;;;1.77;;
28519;SDS011;15732;48.534;20.382;2022-07-03T04:26:34;4.13;;;1.77;;
28519;SDS011;15732;48.534;20.382;2022-07-03T04:29:02;8.03;;;2.33;;
28519;SDS011;15732;48.534;20.382;2022-07-03T04:31:33;3.75;;;1.52;;
28519;SDS011;15732;48.534;20.382;2022-07-03T04:34:04;4.80;;;1.92;;
28519;SDS011;15732;48.534;20.382;2022-07-03T04:36:31;5.93;;;1.60;;
28519;SDS011;15732;48.534;20.382;2022-07-03T04:38:58;4.07;;;1.77;;
28519;SDS011;15732;48.534;20.382;2022-07-03T04:41:25;4.80;;;1.75;;
28519;SDS011;15732;48.534;20.382;2022-07-03T04:43:52;7.15;;;2.78;;
28519;SDS011;15732;48.534;20.382;2022-07-03T04:46:19;4.70;;;2.08;;
28519;SDS011;15732;48.534;20.382;2022-07-03T04:48:51;5.35;;;2.13;;
28519;SDS011;15732;48.534;20.382;2022-07-03T04:51:22;5.90;;;2.28;;
28519;SDS011;15732;48.534;20.382;2022-07-03T04:53:49;5.93;;;2.67;;
28519;SDS011;15732;48.534;20.382;2022-07-03T04:56:20;5.32;;;1.80;;
28519;SDS011;15732;48.534;20.382;2022-07-03T04:58:48;5.37;;;1.73;;
28519;SDS011;15732;48.534;20.382;2022-07-03T05:01:19;5.72;;;2.35;;
28519;SDS011;15732;48.534;20.382;2022-07-03T05:03:47;4.57;;;1.87;;
28519;SDS011;15732;48.534;20.382;2022-07-03T05:06:18;4.95;;;1.75;;
28519;SDS011;15732;48.534;20.382;2022-07-03T05:08:46;4.65;;;2.45;;
28519;SDS011;15732;48.534;20.382;2022-07-03T05:11:13;3.63;;;1.27;;
28519;SDS011;15732;48.534;20.382;2022-07-03T05:13:40;4.40;;;2.00;;
28519;SDS011;15732;48.534;20.382;2022-07-03T05:16:07;7.03;;;2.05;;
28519;SDS011;15732;48.534;20.382;2022-07-03T05:18:38;4.53;;;1.83;;
28519;SDS011;15732;48.534;20.382;2022-07-03T05:21:05;4.95;;;2.15;;
28519;SDS011;15732;48.534;20.382;2022-07-03T05:23:33;4.63;;;1.80;;
28519;SDS011;15732;48.534;20.382;2022-07-03T05:26:00;4.60;;;1.63;;
28519;SDS011;15732;48.534;20.382;2022-07-03T05:28:28;6.15;;;2.00;;
28519;SDS011;15732;48.534;20.382;2022-07-03T05:30:55;5.10;;;2.37;;
28519;SDS011;15732;48.534;20.382;2022-07-03T05:33:22;4.70;;;2.05;;
28519;SDS011;15732;48.534;20.382;2022-07-03T05:35:49;6.90;;;1.75;;
28519;SDS011;15732;48.534;20.382;2022-07-03T05:38:16;3.85;;;1.88;;
28519;SDS011;15732;48.534;20.382;2022-07-03T05:43:31;3.45;;;1.70;;
28519;SDS011;15732;48.534;20.382;2022-07-03T05:45:58;3.73;;;1.60;;
28519;SDS011;15732;48.534;20.382;2022-07-03T05:48:30;3.75;;;1.65;;
28519;SDS011;15732;48.534;20.382;2022-07-03T05:50:57;4.47;;;1.75;;
28519;SDS011;15732;48.534;20.382;2022-07-03T05:53:24;3.13;;;1.30;;
28519;SDS011;15732;48.534;20.382;2022-07-03T05:55:52;3.30;;;1.57;;
28519;SDS011;15732;48.534;20.382;2022-07-03T05:58:19;3.97;;;1.65;;
28519;SDS011;15732;48.534;20.382;2022-07-03T06:00:46;3.55;;;1.63;;
28519;SDS011;15732;48.534;20.382;2022-07-03T06:03:13;7.93;;;1.38;;
28519;SDS011;15732;48.534;20.382;2022-07-03T06:05:40;4.30;;;1.60;;
28519;SDS011;15732;48.534;20.382;2022-07-03T06:08:11;5.00;;;2.22;;
28519;SDS011;15732;48.534;20.382;2022-07-03T06:10:43;4.97;;;2.25;;
28519;SDS011;15732;48.534;20.382;2022-07-03T06:13:10;3.97;;;1.60;;
28519;SDS011;15732;48.534;20.382;2022-07-03T06:15:42;4.30;;;1.80;;
28519;SDS011;15732;48.534;20.382;2022-07-03T06:18:10;4.75;;;2.13;;
28519;SDS011;15732;48.534;20.382;2022-07-03T06:20:41;3.35;;;1.45;;
28519;SDS011;15732;48.534;20.382;2022-07-03T06:23:08;5.23;;;2.17;;
28519;SDS011;15732;48.534;20.382;2022-07-03T06:25:40;7.70;;;2.28;;
28519;SDS011;15732;48.534;20.382;2022-07-03T06:28:07;4.50;;;1.80;;
28519;SDS011;15732;48.534;20.382;2022-07-03T06:30:35;5.55;;;1.92;;
28519;SDS011;15732;48.534;20.382;2022-07-03T06:33:02;3.37;;;1.40;;
28519;SDS011;15732;48.534;20.382;2022-07-03T06:35:32;5.35;;;1.88;;
28519;SDS011;15732;48.534;20.382;2022-07-03T06:38:03;4.28;;;1.88;;
28519;SDS011;15732;48.534;20.382;2022-07-03T06:40:30;15.18;;;2.05;;
28519;SDS011;15732;48.534;20.382;2022-07-03T06:42:57;6.07;;;2.00;;
28519;SDS011;15732;48.534;20.382;2022-07-03T06:45:28;7.75;;;1.52;;
28519;SDS011;15732;48.534;20.382;2022-07-03T06:47:55;5.88;;;2.20;;
28519;SDS011;15732;48.534;20.382;2022-07-03T06:50:23;4.07;;;1.67;;
28519;SDS011;15732;48.534;20.382;2022-07-03T06:52:51;3.40;;;1.75;;
28519;SDS011;15732;48.534;20.382;2022-07-03T06:55:18;4.17;;;1.77;;
28519;SDS011;15732;48.534;20.382;2022-07-03T06:57:45;4.00;;;1.60;;
28519;SDS011;15732;48.534;20.382;2022-07-03T07:00:12;4.47;;;1.50;;
28519;SDS011;15732;48.534;20.382;2022-07-03T07:02:41;3.53;;;1.65;;
28519;SDS011;15732;48.534;20.382;2022-07-03T07:05:08;5.38;;;1.95;;
28519;SDS011;15732;48.534;20.382;2022-07-03T07:07:36;4.18;;;1.88;;
28519;SDS011;15732;48.534;20.382;2022-07-03T07:10:03;5.35;;;2.00;;
28519;SDS011;15732;48.534;20.382;2022-07-03T07:12:32;4.72;;;1.88;;
28519;SDS011;15732;48.534;20.382;2022-07-03T07:14:59;4.18;;;2.17;;
28519;SDS011;15732;48.534;20.382;2022-07-03T07:17:27;5.47;;;2.35;;
28519;SDS011;15732;48.534;20.382;2022-07-03T07:19:54;3.72;;;1.75;;
28519;SDS011;15732;48.534;20.382;2022-07-03T07:22:22;3.83;;;1.55;;
28519;SDS011;15732;48.534;20.382;2022-07-03T07:24:51;3.08;;;1.42;;
28519;SDS011;15732;48.534;20.382;2022-07-03T07:27:18;6.03;;;1.88;;
28519;SDS011;15732;48.534;20.382;2022-07-03T07:29:50;2.95;;;1.42;;
28519;SDS011;15732;48.534;20.382;2022-07-03T07:32:17;4.18;;;1.50;;
28519;SDS011;15732;48.534;20.382;2022-07-03T07:34:48;6.68;;;1.60;;
28519;SDS011;15732;48.534;20.382;2022-07-03T07:37:19;6.25;;;1.85;;
28519;SDS011;15732;48.534;20.382;2022-07-03T07:39:46;3.75;;;1.60;;
28519;SDS011;15732;48.534;20.382;2022-07-03T07:42:14;4.63;;;2.00;;
28519;SDS011;15732;48.534;20.382;2022-07-03T07:44:43;6.05;;;1.88;;
28519;SDS011;15732;48.534;20.382;2022-07-03T07:47:10;4.38;;;1.83;;
28519;SDS011;15732;48.534;20.382;2022-07-03T07:49:37;4.35;;;1.48;;
28519;SDS011;15732;48.534;20.382;2022-07-03T07:52:04;6.00;;;2.00;;
28519;SDS011;15732;48.534;20.382;2022-07-03T07:54:32;3.58;;;1.65;;
28519;SDS011;15732;48.534;20.382;2022-07-03T07:56:59;4.43;;;1.60;;
28519;SDS011;15732;48.534;20.382;2022-07-03T07:59:27;4.60;;;1.83;;
28519;SDS011;15732;48.534;20.382;2022-07-03T08:01:54;5.30;;;2.50;;
28519;SDS011;15732;48.534;20.382;2022-07-03T08:04:40;7.93;;;2.35;;
28519;SDS011;15732;48.534;20.382;2022-07-03T08:07:28;3.67;;;1.67;;
28519;SDS011;15732;48.534;20.382;2022-07-03T08:09:56;4.55;;;1.80;;
28519;SDS011;15732;48.534;20.382;2022-07-03T08:12:23;20.77;;;2.42;;
28519;SDS011;15732;48.534;20.382;2022-07-03T08:14:51;3.53;;;1.55;;
28519;SDS011;15732;48.534;20.382;2022-07-03T08:17:18;4.57;;;1.67;;
28519;SDS011;15732;48.534;20.382;2022-07-03T08:19:49;4.35;;;1.50;;
28519;SDS011;15732;48.534;20.382;2022-07-03T08:22:17;3.28;;;1.50;;
28519;SDS011;15732;48.534;20.382;2022-07-03T08:24:48;6.50;;;2.05;;
28519;SDS011;15732;48.534;20.382;2022-07-03T08:27:15;4.88;;;1.85;;
28519;SDS011;15732;48.534;20.382;2022-07-03T08:29:44;5.20;;;1.85;;
28519;SDS011;15732;48.534;20.382;2022-07-03T08:32:11;8.23;;;2.28;;
28519;SDS011;15732;48.534;20.382;2022-07-03T08:34:38;4.10;;;1.63;;
28519;SDS011;15732;48.534;20.382;2022-07-03T08:37:06;4.25;;;2.00;;
28519;SDS011;15732;48.534;20.382;2022-07-03T08:39:36;4.93;;;1.90;;
28519;SDS011;15732;48.534;20.382;2022-07-03T08:42:04;4.30;;;1.48;;
28519;SDS011;15732;48.534;20.382;2022-07-03T08:44:32;6.57;;;2.00;;
28519;SDS011;15732;48.534;20.382;2022-07-03T08:47:02;3.50;;;1.65;;
28519;SDS011;15732;48.534;20.382;2022-07-03T08:49:29;4.07;;;1.73;;
28519;SDS011;15732;48.534;20.382;2022-07-03T08:51:57;5.57;;;2.25;;
28519;SDS011;15732;48.534;20.382;2022-07-03T08:54:27;6.20;;;2.13;;
28519;SDS011;15732;48.534;20.382;2022-07-03T08:56:57;5.45;;;2.15;;
28519;SDS011;15732;48.534;20.382;2022-07-03T08:59:26;3.53;;;1.80;;
28519;SDS011;15732;48.534;20.382;2022-07-03T09:02:00;4.95;;;2.05;;
28519;SDS011;15732;48.534;20.382;2022-07-03T09:04:31;4.85;;;2.03;;
28519;SDS011;15732;48.534;20.382;2022-07-03T09:06:59;4.40;;;1.80;;
28519;SDS011;15732;48.534;20.382;2022-07-03T09:09:27;4.30;;;1.90;;
28519;SDS011;15732;48.534;20.382;2022-07-03T09:11:54;5.17;;;2.00;;
28519;SDS011;15732;48.534;20.382;2022-07-03T09:14:21;6.38;;;1.77;;
28519;SDS011;15732;48.534;20.382;2022-07-03T09:16:53;4.40;;;1.73;;
28519;SDS011;15732;48.534;20.382;2022-07-03T09:19:39;4.45;;;1.65;;
28519;SDS011;15732;48.534;20.382;2022-07-03T09:22:30;2.97;;;1.35;;
28519;SDS011;15732;48.534;20.382;2022-07-03T09:25:13;3.78;;;1.77;;
28519;SDS011;15732;48.534;20.382;2022-07-03T09:27:52;4.63;;;1.98;;
28519;SDS011;15732;48.534;20.382;2022-07-03T09:30:24;4.90;;;1.80;;
28519;SDS011;15732;48.534;20.382;2022-07-03T09:32:52;5.03;;;1.75;;
28519;SDS011;15732;48.534;20.382;2022-07-03T09:35:20;5.22;;;2.50;;
28519;SDS011;15732;48.534;20.382;2022-07-03T09:40:21;3.97;;;1.45;;
28519;SDS011;15732;48.534;20.382;2022-07-03T09:42:59;5.10;;;1.70;;
28519;SDS011;15732;48.534;20.382;2022-07-03T09:56:33;4.75;;;2.05;;
28519;SDS011;15732;48.534;20.382;2022-07-03T09:59:10;3.95;;;1.73;;
28519;SDS011;15732;48.534;20.382;2022-07-03T10:01:39;4.10;;;1.42;;
28519;SDS011;15732;48.534;20.382;2022-07-03T10:04:22;3.55;;;1.42;;
28519;SDS011;15732;48.534;20.382;2022-07-03T10:06:59;3.60;;;1.50;;
28519;SDS011;15732;48.534;20.382;2022-07-03T10:09:28;3.58;;;1.52;;
28519;SDS011;15732;48.534;20.382;2022-07-03T10:11:57;4.75;;;1.92;;
28519;SDS011;15732;48.534;20.382;2022-07-03T10:14:26;4.28;;;1.60;;
28519;SDS011;15732;48.534;20.382;2022-07-03T10:16:55;4.25;;;1.60;;
28519;SDS011;15732;48.534;20.382;2022-07-03T10:19:24;5.95;;;1.50;;
28519;SDS011;15732;48.534;20.382;2022-07-03T10:21:53;3.58;;;1.42;;
28519;SDS011;15732;48.534;20.382;2022-07-03T10:24:29;2.90;;;1.20;;
28519;SDS011;15732;48.534;20.382;2022-07-03T10:26:58;5.40;;;1.55;;
28519;SDS011;15732;48.534;20.382;2022-07-03T10:29:26;2.88;;;1.30;;
28519;SDS011;15732;48.534;20.382;2022-07-03T10:31:57;3.42;;;1.38;;
28519;SDS011;15732;48.534;20.382;2022-07-03T10:34:25;2.47;;;1.02;;
28519;SDS011;15732;48.534;20.382;2022-07-03T10:36:56;3.35;;;1.23;;
28519;SDS011;15732;48.534;20.382;2022-07-03T10:41:57;4.47;;;1.52;;
28519;SDS011;15732;48.534;20.382;2022-07-03T10:44:51;3.38;;;1.65;;
28519;SDS011;15732;48.534;20.382;2022-07-03T10:47:42;7.38;;;1.67;;
28519;SDS011;15732;48.534;20.382;2022-07-03T10:50:16;4.75;;;1.50;;
28519;SDS011;15732;48.534;20.382;2022-07-03T10:52:47;4.93;;;1.48;;
28519;SDS011;15732;48.534;20.382;2022-07-03T10:55:15;3.83;;;1.60;;
28519;SDS011;15732;48.534;20.382;2022-07-03T10:57:44;4.70;;;1.85;;
28519;SDS011;15732;48.534;20.382;2022-07-03T11:00:53;4.30;;;1.75;;
28519;SDS011;15732;48.534;20.382;2022-07-03T11:09:22;4.18;;;1.75;;
28519;SDS011;15732;48.534;20.382;2022-07-03T11:11:49;5.57;;;1.60;;
28519;SDS011;15732;48.534;20.382;2022-07-03T11:14:27;3.22;;;1.30;;
28519;SDS011;15732;48.534;20.382;2022-07-03T11:19:48;3.30;;;1.33;;
28519;SDS011;15732;48.534;20.382;2022-07-03T11:28:06;3.45;;;1.42;;
28519;SDS011;15732;48.534;20.382;2022-07-03T11:30:40;3.13;;;1.30;;
28519;SDS011;15732;48.534;20.382;2022-07-03T11:39:02;3.80;;;1.42;;
28519;SDS011;15732;48.534;20.382;2022-07-03T11:44:07;3.53;;;1.60;;
28519;SDS011;15732;48.534;20.382;2022-07-03T11:46:36;3.83;;;1.20;;
28519;SDS011;15732;48.534;20.382;2022-07-03T11:49:11;4.88;;;1.35;;
28519;SDS011;15732;48.534;20.382;2022-07-03T11:51:39;10.13;;;1.70;;
28519;SDS011;15732;48.534;20.382;2022-07-03T11:54:07;2.55;;;1.10;;
28519;SDS011;15732;48.534;20.382;2022-07-03T11:56:34;3.30;;;1.50;;
28519;SDS011;15732;48.534;20.382;2022-07-03T11:59:04;3.20;;;1.20;;
28519;SDS011;15732;48.534;20.382;2022-07-03T12:01:32;2.03;;;0.85;;
28519;SDS011;15732;48.534;20.382;2022-07-03T12:04:15;6.32;;;1.38;;
28519;SDS011;15732;48.534;20.382;2022-07-03T12:07:05;3.13;;;1.17;;
28519;SDS011;15732;48.534;20.382;2022-07-03T12:09:33;6.63;;;1.50;;
28519;SDS011;15732;48.534;20.382;2022-07-03T12:12:03;2.65;;;1.20;;
28519;SDS011;15732;48.534;20.382;2022-07-03T12:17:04;3.95;;;1.52;;
28519;SDS011;15732;48.534;20.382;2022-07-03T12:19:32;2.80;;;1.10;;
28519;SDS011;15732;48.534;20.382;2022-07-03T12:21:59;5.65;;;1.40;;
28519;SDS011;15732;48.534;20.382;2022-07-03T12:24:27;7.22;;;1.40;;
28519;SDS011;15732;48.534;20.382;2022-07-03T12:26:54;2.92;;;1.00;;
28519;SDS011;15732;48.534;20.382;2022-07-03T12:29:21;3.53;;;1.50;;
28519;SDS011;15732;48.534;20.382;2022-07-03T12:31:52;2.63;;;1.00;;
28519;SDS011;15732;48.534;20.382;2022-07-03T12:34:20;3.63;;;1.13;;
28519;SDS011;15732;48.534;20.382;2022-07-03T12:36:54;4.38;;;1.05;;
28519;SDS011;15732;48.534;20.382;2022-07-03T12:39:22;2.42;;;1.10;;
28519;SDS011;15732;48.534;20.382;2022-07-03T12:41:54;2.22;;;1.00;;
28519;SDS011;15732;48.534;20.382;2022-07-03T12:44:21;3.22;;;1.42;;
28519;SDS011;15732;48.534;20.382;2022-07-03T12:46:53;4.07;;;0.93;;
28519;SDS011;15732;48.534;20.382;2022-07-03T12:51:52;3.30;;;1.00;;
28519;SDS011;15732;48.534;20.382;2022-07-03T12:54:31;1.88;;;0.88;;
28519;SDS011;15732;48.534;20.382;2022-07-03T12:57:08;3.00;;;1.17;;
28519;SDS011;15732;48.534;20.382;2022-07-03T13:00:01;3.08;;;1.00;;
28519;SDS011;15732;48.534;20.382;2022-07-03T13:02:38;6.13;;;1.23;;
28519;SDS011;15732;48.534;20.382;2022-07-03T13:07:50;3.50;;;1.40;;
28519;SDS011;15732;48.534;20.382;2022-07-03T13:10:19;5.43;;;1.35;;
28519;SDS011;15732;48.534;20.382;2022-07-03T13:12:56;3.35;;;1.20;;
28519;SDS011;15732;48.534;20.382;2022-07-03T13:15:28;3.03;;;1.27;;
28519;SDS011;15732;48.534;20.382;2022-07-03T13:20:34;4.28;;;1.65;;
28519;SDS011;15732;48.534;20.382;2022-07-03T13:23:03;2.70;;;1.02;;
28519;SDS011;15732;48.534;20.382;2022-07-03T13:25:32;2.58;;;1.10;;
28519;SDS011;15732;48.534;20.382;2022-07-03T13:30:34;4.90;;;1.42;;
28519;SDS011;15732;48.534;20.382;2022-07-03T13:33:02;2.33;;;0.93;;
28519;SDS011;15732;48.534;20.382;2022-07-03T13:35:30;5.03;;;1.60;;
28519;SDS011;15732;48.534;20.382;2022-07-03T13:37:57;4.00;;;1.43;;
28519;SDS011;15732;48.534;20.382;2022-07-03T13:40:24;3.33;;;1.20;;
28519;SDS011;15732;48.534;20.382;2022-07-03T13:42:50;4.60;;;1.07;;
28519;SDS011;15732;48.534;20.382;2022-07-03T13:45:18;3.38;;;1.00;;
28519;SDS011;15732;48.534;20.382;2022-07-03T13:47:45;2.27;;;1.00;;
28519;SDS011;15732;48.534;20.382;2022-07-03T13:50:12;3.10;;;1.05;;
28519;SDS011;15732;48.534;20.382;2022-07-03T13:52:40;2.83;;;1.23;;
28519;SDS011;15732;48.534;20.382;2022-07-03T13:55:07;2.35;;;0.80;;
28519;SDS011;15732;48.534;20.382;2022-07-03T13:57:40;4.40;;;0.90;;
28519;SDS011;15732;48.534;20.382;2022-07-03T14:00:07;3.47;;;1.05;;
28519;SDS011;15732;48.534;20.382;2022-07-03T14:02:36;2.33;;;0.90;;
28519;SDS011;15732;48.534;20.382;2022-07-03T14:05:05;9.60;;;1.30;;
28519;SDS011;15732;48.534;20.382;2022-07-03T14:07:33;3.38;;;1.13;;
28519;SDS011;15732;48.534;20.382;2022-07-03T14:10:01;4.30;;;1.50;;
28519;SDS011;15732;48.534;20.382;2022-07-03T14:12:28;2.80;;;1.10;;
28519;SDS011;15732;48.534;20.382;2022-07-03T14:14:55;2.33;;;1.05;;
28519;SDS011;15732;48.534;20.382;2022-07-03T14:17:23;2.50;;;0.93;;
28519;SDS011;15732;48.534;20.382;2022-07-03T14:19:53;2.13;;;0.85;;
28519;SDS011;15732;48.534;20.382;2022-07-03T14:22:20;4.43;;;1.05;;
28519;SDS011;15732;48.534;20.382;2022-07-03T14:24:48;5.43;;;1.08;;
28519;SDS011;15732;48.534;20.382;2022-07-03T14:27:15;2.13;;;0.90;;
28519;SDS011;15732;48.534;20.382;2022-07-03T14:30:00;3.83;;;1.38;;
28519;SDS011;15732;48.534;20.382;2022-07-03T14:32:46;2.80;;;1.20;;
28519;SDS011;15732;48.534;20.382;2022-07-03T14:35:13;4.03;;;1.40;;
28519;SDS011;15732;48.534;20.382;2022-07-03T14:37:40;8.85;;;1.30;;
28519;SDS011;15732;48.534;20.382;2022-07-03T14:40:08;2.58;;;0.93;;
28519;SDS011;15732;48.534;20.382;2022-07-03T14:42:36;2.92;;;1.05;;
28519;SDS011;15732;48.534;20.382;2022-07-03T14:45:04;4.25;;;1.40;;
28519;SDS011;15732;48.534;20.382;2022-07-03T14:47:33;3.35;;;1.10;;
28519;SDS011;15732;48.534;20.382;2022-07-03T14:50:00;2.40;;;0.97;;
28519;SDS011;15732;48.534;20.382;2022-07-03T14:52:28;2.97;;;1.00;;
28519;SDS011;15732;48.534;20.382;2022-07-03T14:54:55;2.75;;;0.90;;
28519;SDS011;15732;48.534;20.382;2022-07-03T14:57:26;4.80;;;1.52;;
28519;SDS011;15732;48.534;20.382;2022-07-03T15:00:12;4.85;;;1.08;;
28519;SDS011;15732;48.534;20.382;2022-07-03T15:05:12;2.22;;;0.98;;
28519;SDS011;15732;48.534;20.382;2022-07-03T15:08:04;2.95;;;1.27;;
28519;SDS011;15732;48.534;20.382;2022-07-03T15:10:40;2.78;;;1.13;;
28519;SDS011;15732;48.534;20.382;2022-07-03T15:13:08;3.30;;;1.50;;
28519;SDS011;15732;48.534;20.382;2022-07-03T15:15:39;2.35;;;1.10;;
28519;SDS011;15732;48.534;20.382;2022-07-03T15:18:06;3.70;;;1.20;;
28519;SDS011;15732;48.534;20.382;2022-07-03T15:20:36;2.70;;;1.00;;
28519;SDS011;15732;48.534;20.382;2022-07-03T15:23:03;9.10;;;1.20;;
28519;SDS011;15732;48.534;20.382;2022-07-03T15:25:32;3.50;;;1.45;;
28519;SDS011;15732;48.534;20.382;2022-07-03T15:28:02;2.30;;;0.93;;
28519;SDS011;15732;48.534;20.382;2022-07-03T15:30:30;3.17;;;1.30;;
28519;SDS011;15732;48.534;20.382;2022-07-03T15:32:57;2.72;;;1.00;;
28519;SDS011;15732;48.534;20.382;2022-07-03T15:35:29;4.85;;;1.10;;
28519;SDS011;15732;48.534;20.382;2022-07-03T15:38:09;3.25;;;1.08;;
28519;SDS011;15732;48.534;20.382;2022-07-03T15:40:53;2.70;;;1.30;;
28519;SDS011;15732;48.534;20.382;2022-07-03T15:46:36;3.45;;;1.42;;
28519;SDS011;15732;48.534;20.382;2022-07-03T15:54:40;2.70;;;1.00;;
28519;SDS011;15732;48.534;20.382;2022-07-03T15:57:25;5.25;;;0.98;;
28519;SDS011;15732;48.534;20.382;2022-07-03T16:05:31;2.83;;;1.00;;
28519;SDS011;15732;48.534;20.382;2022-07-03T16:08:10;4.57;;;1.25;;
28519;SDS011;15732;48.534;20.382;2022-07-03T16:10:43;5.07;;;1.00;;
28519;SDS011;15732;48.534;20.382;2022-07-03T16:13:10;2.22;;;1.15;;
28519;SDS011;15732;48.534;20.382;2022-07-03T16:15:41;3.38;;;1.20;;
28519;SDS011;15732;48.534;20.382;2022-07-03T16:18:10;4.53;;;1.27;;
28519;SDS011;15732;48.534;20.382;2022-07-03T16:20:38;3.22;;;1.33;;
28519;SDS011;15732;48.534;20.382;2022-07-03T16:23:05;3.45;;;1.05;;
28519;SDS011;15732;48.534;20.382;2022-07-03T16:25:35;2.20;;;1.10;;
28519;SDS011;15732;48.534;20.382;2022-07-03T16:28:04;7.05;;;1.20;;
28519;SDS011;15732;48.534;20.382;2022-07-03T16:30:39;4.13;;;1.25;;
28519;SDS011;15732;48.534;20.382;2022-07-03T16:33:15;2.70;;;1.25;;
28519;SDS011;15732;48.534;20.382;2022-07-03T16:35:54;2.40;;;1.00;;
28519;SDS011;15732;48.534;20.382;2022-07-03T16:40:57;3.67;;;1.38;;
28519;SDS011;15732;48.534;20.382;2022-07-03T16:43:32;2.57;;;1.00;;
28519;SDS011;15732;48.534;20.382;2022-07-03T16:46:09;2.33;;;1.00;;
28519;SDS011;15732;48.534;20.382;2022-07-03T16:48:43;2.75;;;1.10;;
28519;SDS011;15732;48.534;20.382;2022-07-03T16:51:16;3.13;;;1.20;;
28519;SDS011;15732;48.534;20.382;2022-07-03T16:53:45;3.50;;;1.42;;
28519;SDS011;15732;48.534;20.382;2022-07-03T16:56:12;5.70;;;1.10;;